Time;durP1;ratioP1;P1;durP2;ratioP2;P2;SDS_P1;SDS_P2;PMS_P1;PMS_P2;Temp;Humidity;BMP_temperature;BMP_pressure;BME280_temperature;BME280_humidity;BME280_pressure;Samples;Min_cycle;Max_cycle;Signal;HPM_P1;HPM_P2
2023/11/26 00:00:27;;;;;;;6.22;2.20;;;;;;;0.82;100.00;97062.97;5026942;28;20037;-64
2023/11/26 00:02:53;;;;;;;6.53;2.13;;;;;;;0.86;100.00;97072.22;5042536;28;20110;-63
2023/11/26 00:05:20;;;;;;;4.97;2.58;;;;;;;0.78;100.00;97059.06;5039906;28;20057;-62
2023/11/26 00:07:47;;;;;;;6.35;2.75;;;;;;;0.75;100.00;97054.97;5034838;28;20693;-63
2023/11/26 00:10:13;;;;;;;5.82;2.55;;;;;;;0.92;100.00;97080.47;5027479;28;20550;-62
2023/11/26 00:12:40;;;;;;;7.43;2.42;;;;;;;0.77;100.00;97078.72;5039216;28;20041;-63
2023/11/26 00:15:08;;;;;;;8.48;2.10;;;;;;;0.76;100.00;97064.59;5038590;28;20037;-62
2023/11/26 00:17:35;;;;;;;6.20;2.58;;;;;;;0.79;100.00;97060.69;5041660;28;20127;-62
2023/11/26 00:20:02;;;;;;;7.88;2.47;;;;;;;0.69;100.00;97058.38;5052025;28;20036;-62
2023/11/26 00:22:29;;;;;;;5.68;2.47;;;;;;;0.75;100.00;97052.28;5027374;28;20053;-62
2023/11/26 00:24:56;;;;;;;6.93;2.47;;;;;;;0.79;100.00;97066.03;5039934;28;20047;-63
2023/11/26 00:27:23;;;;;;;6.55;2.35;;;;;;;0.79;100.00;97071.38;5047923;28;20044;-63
2023/11/26 00:29:49;;;;;;;6.45;2.95;;;;;;;0.85;100.00;97077.75;5053248;28;20075;-62
2023/11/26 00:32:16;;;;;;;4.63;2.55;;;;;;;0.93;100.00;97068.75;5043206;28;20049;-62
2023/11/26 00:34:43;;;;;;;8.50;2.60;;;;;;;0.86;100.00;97055.41;5038383;28;20051;-61
2023/11/26 00:37:10;;;;;;;5.70;2.60;;;;;;;0.87;100.00;97073.88;5039200;28;20046;-63
2023/11/26 00:39:36;;;;;;;7.75;2.85;;;;;;;0.81;100.00;97058.66;5040766;28;20046;-62
2023/11/26 00:42:03;;;;;;;9.40;3.10;;;;;;;0.84;100.00;97063.59;5038863;28;20128;-63
2023/11/26 00:44:30;;;;;;;6.07;2.38;;;;;;;0.95;100.00;97056.88;5041488;28;20037;-62
2023/11/26 00:46:57;;;;;;;9.90;2.90;;;;;;;0.95;100.00;97066.75;5035397;28;20140;-62
2023/11/26 00:49:24;;;;;;;9.52;3.28;;;;;;;0.82;100.00;97051.50;5037898;28;20527;-61
2023/11/26 00:51:51;;;;;;;4.95;2.47;;;;;;;0.89;100.00;97050.50;5032921;28;20566;-61
2023/11/26 00:54:18;;;;;;;5.00;2.35;;;;;;;0.89;100.00;97060.34;5036463;28;20045;-63
2023/11/26 00:56:45;;;;;;;6.90;2.42;;;;;;;0.73;100.00;97048.16;5030717;28;20570;-63
2023/11/26 00:59:12;;;;;;;4.47;2.40;;;;;;;0.66;100.00;97041.97;5040091;28;20044;-63
2023/11/26 01:01:39;;;;;;;5.40;2.30;;;;;;;0.55;100.00;97046.81;5039105;28;20041;-63
2023/11/26 01:04:06;;;;;;;10.98;2.42;;;;;;;0.57;100.00;97066.13;5042380;28;20036;-62
2023/11/26 01:06:35;;;;;;;5.57;2.28;;;;;;;0.53;100.00;97075.50;5038029;28;20072;-62
2023/11/26 01:09:03;;;;;;;4.60;1.83;;;;;;;0.47;100.00;97081.59;5045342;28;20124;-62
2023/11/26 01:11:30;;;;;;;5.85;1.85;;;;;;;0.44;100.00;97090.00;5043195;28;20073;-63
2023/11/26 01:13:57;;;;;;;4.65;1.70;;;;;;;0.37;100.00;97098.75;5036265;28;20695;-64
2023/11/26 01:16:24;;;;;;;4.03;1.35;;;;;;;0.29;100.00;97109.53;5040685;28;20083;-63
2023/11/26 01:18:50;;;;;;;3.38;1.60;;;;;;;0.26;100.00;97107.28;5043649;28;20052;-63
2023/11/26 01:21:17;;;;;;;7.47;1.92;;;;;;;0.14;100.00;97114.94;5039434;28;20112;-64
2023/11/26 01:23:45;;;;;;;4.30;1.88;;;;;;;0.02;100.00;97125.31;5053398;28;20045;-62
2023/11/26 01:26:12;;;;;;;6.97;1.95;;;;;;;0.02;100.00;97141.28;5027289;28;20049;-62
2023/11/26 01:28:38;;;;;;;3.63;1.48;;;;;;;0.08;100.00;97142.34;5035267;28;20044;-62
2023/11/26 01:31:09;;;;;;;5.28;1.40;;;;;;;-0.17;100.00;97111.63;5027502;28;20092;-64
2023/11/26 01:33:35;;;;;;;4.03;1.70;;;;;;;-0.20;100.00;97116.47;5030981;28;20840;-63
2023/11/26 01:36:06;;;;;;;3.97;1.60;;;;;;;-0.31;100.00;97115.97;5025557;28;20045;-62
2023/11/26 01:38:33;;;;;;;3.77;1.47;;;;;;;-0.38;100.00;97128.38;5035309;28;20103;-62
2023/11/26 01:40:59;;;;;;;4.68;1.35;;;;;;;-0.38;100.00;97130.22;5042476;28;20044;-64
2023/11/26 01:43:26;;;;;;;4.05;1.58;;;;;;;-0.45;100.00;97130.97;5035527;28;20045;-63
2023/11/26 01:46:03;;;;;;;2.28;1.23;;;;;;;-0.47;100.00;97132.16;5035923;28;20140;-62
2023/11/26 01:48:30;;;;;;;2.53;1.30;;;;;;;-0.51;100.00;97125.56;5039514;28;20055;-63
2023/11/26 01:50:57;;;;;;;4.80;1.30;;;;;;;-0.46;100.00;97142.63;5030882;28;20041;-62
2023/11/26 01:53:25;;;;;;;7.50;1.90;;;;;;;-0.41;100.00;97153.50;5041326;28;20045;-62
2023/11/26 01:55:52;;;;;;;5.18;1.73;;;;;;;-0.34;100.00;97158.91;5038685;28;20049;-62
2023/11/26 01:58:19;;;;;;;4.35;1.70;;;;;;;-0.30;100.00;97165.50;5044796;28;20055;-62
2023/11/26 02:00:46;;;;;;;4.63;1.52;;;;;;;-0.33;100.00;97157.88;5029045;28;20037;-62
2023/11/26 02:03:13;;;;;;;7.95;1.70;;;;;;;-0.24;100.00;97177.25;5027744;28;20045;-62
2023/11/26 02:05:39;;;;;;;9.00;1.88;;;;;;;-0.25;100.00;97167.63;5026347;28;20451;-63
2023/11/26 02:08:07;;;;;;;3.25;1.42;;;;;;;-0.32;100.00;97150.75;5036216;28;20150;-63
2023/11/26 02:10:33;;;;;;;6.72;2.00;;;;;;;-0.42;100.00;97135.91;5031605;28;20037;-64
2023/11/26 02:13:04;;;;;;;4.22;1.70;;;;;;;-0.46;100.00;97134.63;5030986;28;20041;-63
2023/11/26 02:15:32;;;;;;;4.75;1.77;;;;;;;-0.43;100.00;97139.59;5036987;28;20413;-62
2023/11/26 02:17:59;;;;;;;8.98;1.85;;;;;;;-0.48;100.00;97139.31;5025210;28;20133;-63
2023/11/26 02:20:26;;;;;;;6.25;1.88;;;;;;;-0.37;100.00;97138.00;5026960;28;20041;-63
2023/11/26 02:22:53;;;;;;;4.57;1.48;;;;;;;-0.34;100.00;97140.28;5042043;28;20419;-63
2023/11/26 02:25:23;;;;;;;6.72;1.45;;;;;;;-0.30;100.00;97140.72;5045034;28;20041;-63
2023/11/26 02:27:50;;;;;;;4.45;1.27;;;;;;;-0.41;100.00;97126.91;5031490;28;20516;-62
2023/11/26 02:30:20;;;;;;;3.25;1.40;;;;;;;-0.37;100.00;97142.50;5024541;28;20045;-62
2023/11/26 02:32:47;;;;;;;5.22;1.60;;;;;;;-0.38;100.00;97138.22;5031680;28;20049;-62
2023/11/26 02:35:14;;;;;;;7.30;1.50;;;;;;;-0.34;100.00;97152.78;5036186;28;20064;-62
2023/11/26 02:37:41;;;;;;;5.30;1.52;;;;;;;-0.27;100.00;97166.97;5060120;28;20047;-62
2023/11/26 02:40:08;;;;;;;3.78;1.38;;;;;;;-0.24;100.00;97179.06;5047373;28;20040;-63
2023/11/26 02:42:36;;;;;;;5.28;1.30;;;;;;;-0.26;100.00;97173.94;5020662;28;20046;-62
2023/11/26 02:45:03;;;;;;;5.15;1.70;;;;;;;-0.20;100.00;97172.34;5039019;28;20094;-63
2023/11/26 02:47:31;;;;;;;2.97;1.30;;;;;;;-0.30;100.00;97151.38;5028751;28;20056;-62
2023/11/26 02:49:58;;;;;;;4.30;1.45;;;;;;;-0.41;100.00;97142.88;5044661;28;20063;-62
2023/11/26 02:52:25;;;;;;;3.92;1.20;;;;;;;-0.38;100.00;97148.84;5043522;28;20131;-62
2023/11/26 02:54:52;;;;;;;2.78;1.20;;;;;;;-0.46;100.00;97144.44;5048729;28;20101;-63
2023/11/26 02:57:18;;;;;;;6.55;1.77;;;;;;;-0.50;100.00;97149.31;5036235;28;20041;-63
2023/11/26 02:59:46;;;;;;;4.22;1.45;;;;;;;-0.49;100.00;97158.94;5043266;28;20029;-63
2023/11/26 03:02:14;;;;;;;4.32;1.55;;;;;;;-0.49;100.00;97158.09;5045084;28;20048;-62
2023/11/26 03:04:48;;;;;;;7.30;1.65;;;;;;;-0.45;100.00;97157.56;5041569;28;20037;-63
2023/11/26 03:07:16;;;;;;;2.95;1.17;;;;;;;-0.42;100.00;97159.84;5032605;28;20595;-62
2023/11/26 03:15:14;;;;;;;3.60;1.50;;;;;;;-0.27;100.00;97153.66;5056691;28;20064;-62
2023/11/26 03:17:41;;;;;;;6.05;1.55;;;;;;;-0.23;100.00;97148.81;5050040;28;20040;-63
2023/11/26 03:20:08;;;;;;;4.25;2.10;;;;;;;-0.19;100.00;97150.09;5040054;28;20677;-62
2023/11/26 03:22:36;;;;;;;4.18;1.50;;;;;;;-0.11;100.00;97147.28;5032506;28;20412;-63
2023/11/26 03:25:06;;;;;;;11.50;1.60;;;;;;;-0.12;100.00;97139.50;5045129;28;20072;-62
2023/11/26 03:27:36;;;;;;;5.05;1.60;;;;;;;-0.09;100.00;97141.75;5036969;28;20060;-62
2023/11/26 03:30:02;;;;;;;5.07;1.48;;;;;;;0.00;100.00;97148.63;5042107;28;20045;-62
2023/11/26 03:32:29;;;;;;;3.60;1.50;;;;;;;0.00;100.00;97135.31;5035779;28;20041;-63
2023/11/26 03:34:56;;;;;;;3.42;1.48;;;;;;;0.06;100.00;97142.53;5038560;28;20726;-63
2023/11/26 03:37:22;;;;;;;4.72;1.42;;;;;;;0.08;100.00;97134.38;5047548;28;20041;-63
2023/11/26 03:39:50;;;;;;;4.65;1.35;;;;;;;0.10;100.00;97127.84;5036730;28;20051;-62
2023/11/26 03:42:16;;;;;;;3.67;1.40;;;;;;;0.12;100.00;97130.31;5041481;28;20095;-64
2023/11/26 03:44:55;;;;;;;1.33;0.90;;;;;;;0.20;100.00;97127.50;5040423;28;20044;-62
2023/11/26 03:47:23;;;;;;;3.42;1.20;;;;;;;0.18;100.00;97126.06;5043684;28;20124;-64
2023/11/26 03:49:50;;;;;;;6.43;1.40;;;;;;;0.16;100.00;97117.44;5039595;28;20041;-63
2023/11/26 03:52:18;;;;;;;2.60;1.10;;;;;;;0.15;100.00;97119.28;5033910;28;20045;-63
2023/11/26 03:54:45;;;;;;;3.88;1.33;;;;;;;0.12;100.00;97120.47;5033095;28;20044;-62
2023/11/26 03:57:11;;;;;;;3.53;1.35;;;;;;;0.19;100.00;97122.38;5045732;28;20044;-64
2023/11/26 03:59:42;;;;;;;3.53;1.20;;;;;;;0.12;100.00;97117.81;5036788;28;20049;-63
2023/11/26 04:02:09;;;;;;;4.28;1.25;;;;;;;0.15;100.00;97123.78;5046553;28;20032;-63
2023/11/26 04:04:37;;;;;;;4.28;1.30;;;;;;;0.15;100.00;97129.94;5036165;28;20559;-64
2023/11/26 04:07:04;;;;;;;4.07;1.75;;;;;;;0.17;100.00;97129.72;5044671;28;20421;-64
2023/11/26 04:09:31;;;;;;;3.65;1.10;;;;;;;0.16;100.00;97131.56;5038111;28;20102;-63
2023/11/26 04:11:58;;;;;;;2.85;1.33;;;;;;;0.13;100.00;97123.97;5048518;28;20090;-63
2023/11/26 04:14:31;;;;;;;2.58;1.00;;;;;;;0.20;100.00;97135.50;5038330;28;20045;-64
2023/11/26 04:16:59;;;;;;;3.55;1.23;;;;;;;0.15;100.00;97131.75;5034724;28;20076;-63
2023/11/26 04:19:26;;;;;;;3.17;1.40;;;;;;;0.26;100.00;97144.56;5035563;28;20216;-62
2023/11/26 04:21:52;;;;;;;2.97;1.02;;;;;;;0.18;100.00;97139.38;5041660;28;20044;-63
2023/11/26 04:24:19;;;;;;;4.97;1.23;;;;;;;0.12;100.00;97133.78;5032474;28;20037;-62
2023/11/26 04:26:46;;;;;;;4.40;0.90;;;;;;;0.06;100.00;97137.22;5033507;28;20385;-62
2023/11/26 04:29:13;;;;;;;2.55;0.90;;;;;;;-0.02;100.00;97142.66;5039486;28;20585;-62
2023/11/26 04:31:40;;;;;;;3.75;1.00;;;;;;;0.01;100.00;97139.63;5039803;28;20038;-62
2023/11/26 04:34:06;;;;;;;1.48;0.90;;;;;;;-0.03;100.00;97146.34;5046074;28;20040;-63
2023/11/26 04:36:33;;;;;;;1.42;0.80;;;;;;;-0.07;100.00;97147.72;5042227;28;20044;-62
2023/11/26 04:38:59;;;;;;;2.00;0.95;;;;;;;-0.18;100.00;97152.53;5048256;28;20128;-63
2023/11/26 04:41:26;;;;;;;5.20;1.42;;;;;;;-0.21;100.00;97158.25;5044586;28;20045;-62
2023/11/26 04:43:53;;;;;;;2.92;1.20;;;;;;;-0.17;100.00;97164.00;5046555;28;20128;-63
2023/11/26 04:46:20;;;;;;;2.30;1.23;;;;;;;-0.27;100.00;97157.16;5040718;28;20045;-62
2023/11/26 04:48:46;;;;;;;2.10;1.30;;;;;;;-0.28;100.00;97160.00;5044819;28;20046;-63
2023/11/26 04:51:14;;;;;;;1.90;1.10;;;;;;;-0.29;100.00;97161.03;5021512;28;20511;-62
2023/11/26 04:53:41;;;;;;;1.13;0.80;;;;;;;-0.42;100.00;97162.50;5041801;28;20049;-63
2023/11/26 04:56:07;;;;;;;2.63;1.17;;;;;;;-0.51;100.00;97160.97;5042072;28;20047;-66
2023/11/26 04:58:34;;;;;;;4.40;1.00;;;;;;;-0.47;100.00;97162.25;5045082;28;20037;-62
2023/11/26 05:01:01;;;;;;;1.63;0.80;;;;;;;-0.33;100.00;97165.88;5035491;28;20041;-62
2023/11/26 05:03:29;;;;;;;1.58;0.60;;;;;;;-0.19;100.00;97163.38;5048648;28;20127;-63
2023/11/26 05:05:56;;;;;;;1.77;0.80;;;;;;;-0.22;100.00;97164.56;5037811;28;20040;-62
2023/11/26 05:08:24;;;;;;;0.60;0.60;;;;;;;-0.10;100.00;97169.41;5033767;28;20120;-64
2023/11/26 05:10:50;;;;;;;2.00;0.65;;;;;;;-0.12;100.00;97176.75;5038373;28;20507;-63
2023/11/26 05:13:17;;;;;;;1.67;0.73;;;;;;;-0.14;100.00;97185.75;5044690;28;20044;-63
2023/11/26 05:15:44;;;;;;;1.40;0.68;;;;;;;-0.16;100.00;97185.13;5035296;28;20606;-61
2023/11/26 05:18:10;;;;;;;1.85;0.82;;;;;;;-0.18;100.00;97192.44;5037025;28;20091;-63
2023/11/26 05:20:37;;;;;;;1.90;0.77;;;;;;;-0.20;100.00;97197.16;5049062;28;20049;-64
2023/11/26 05:23:04;;;;;;;2.05;0.60;;;;;;;-0.24;100.00;97195.88;5041059;28;20049;-62
2023/11/26 05:25:30;;;;;;;1.75;0.70;;;;;;;-0.16;100.00;97194.91;5036250;28;20071;-64
2023/11/26 05:27:57;;;;;;;1.02;0.50;;;;;;;0.08;100.00;97195.59;5033778;28;20045;-64
2023/11/26 05:30:24;;;;;;;0.93;0.60;;;;;;;0.00;100.00;97196.56;5039941;28;20037;-64
2023/11/26 05:32:51;;;;;;;4.15;1.02;;;;;;;0.10;100.00;97199.72;5035478;28;20033;-63
2023/11/26 05:35:19;;;;;;;3.03;0.93;;;;;;;-0.02;100.00;97196.75;5031501;28;20124;-62
2023/11/26 05:37:45;;;;;;;0.88;0.60;;;;;;;0.05;100.00;97198.63;5035200;28;20075;-63
2023/11/26 05:40:12;;;;;;;3.45;0.80;;;;;;;0.20;100.00;97198.56;5037067;28;20075;-62
2023/11/26 05:42:39;;;;;;;2.63;1.05;;;;;;;0.11;100.00;97192.56;5031651;28;20045;-63
2023/11/26 05:45:06;;;;;;;2.15;0.77;;;;;;;0.10;100.00;97194.41;5036074;28;20041;-63
2023/11/26 05:47:33;;;;;;;2.75;0.90;;;;;;;0.16;100.00;97197.31;5036579;28;20106;-63
2023/11/26 05:49:59;;;;;;;2.85;1.25;;;;;;;0.22;100.00;97199.22;5038525;28;20044;-62
2023/11/26 05:52:26;;;;;;;4.07;1.20;;;;;;;0.31;100.00;97208.75;5037791;28;20051;-63
2023/11/26 05:54:53;;;;;;;4.45;1.50;;;;;;;0.33;100.00;97200.56;5034227;28;20116;-63
2023/11/26 05:57:19;;;;;;;2.50;1.10;;;;;;;0.21;100.00;97203.72;5025752;28;20064;-63
2023/11/26 05:59:46;;;;;;;2.83;1.15;;;;;;;0.04;100.00;97204.97;5036745;28;20044;-64
2023/11/26 06:02:12;;;;;;;3.72;1.42;;;;;;;0.05;100.00;97211.94;5038715;28;20043;-62
2023/11/26 06:04:39;;;;;;;4.55;1.20;;;;;;;0.18;100.00;97208.59;5038083;28;20041;-63
2023/11/26 06:07:06;;;;;;;2.10;1.02;;;;;;;0.18;100.00;97212.06;5031031;28;20056;-63
2023/11/26 06:09:32;;;;;;;2.78;1.38;;;;;;;0.18;100.00;97227.25;5037973;28;20045;-63
2023/11/26 06:11:59;;;;;;;3.13;1.50;;;;;;;0.20;100.00;97233.19;5041287;28;20037;-62
2023/11/26 06:14:25;;;;;;;7.22;1.92;;;;;;;0.29;100.00;97232.06;5041735;28;20047;-62
2023/11/26 06:16:52;;;;;;;3.17;1.40;;;;;;;0.43;100.00;97238.34;5050476;28;20045;-62
2023/11/26 06:19:18;;;;;;;6.28;1.73;;;;;;;0.40;100.00;97240.56;5051896;28;20063;-63
2023/11/26 06:21:47;;;;;;;6.68;1.90;;;;;;;0.45;100.00;97240.81;5037393;28;20047;-62
2023/11/26 06:24:14;;;;;;;3.05;1.90;;;;;;;0.55;100.00;97246.66;5042536;28;20112;-63
2023/11/26 06:26:41;;;;;;;4.88;2.00;;;;;;;0.53;100.00;97238.03;5035310;28;20732;-63
2023/11/26 06:29:07;;;;;;;4.30;1.58;;;;;;;0.58;100.00;97246.28;5050162;28;20047;-62
2023/11/26 06:31:34;;;;;;;5.47;2.20;;;;;;;0.57;100.00;97249.13;5040571;28;20037;-62
2023/11/26 06:34:01;;;;;;;4.78;1.83;;;;;;;0.54;100.00;97250.34;5049843;28;20676;-63
2023/11/26 06:36:28;;;;;;;4.03;2.10;;;;;;;0.58;100.00;97250.78;5048464;28;20057;-62
2023/11/26 06:38:56;;;;;;;4.95;2.13;;;;;;;0.67;100.00;97251.47;5056131;28;20048;-63
2023/11/26 06:41:31;;;;;;;7.55;2.15;;;;;;;0.75;100.00;97257.50;5041174;28;20059;-63
2023/11/26 06:44:02;;;;;;;6.47;2.53;;;;;;;0.67;100.00;97254.16;5048656;28;20052;-64
2023/11/26 06:46:28;;;;;;;5.53;2.42;;;;;;;0.73;100.00;97254.19;5045191;28;20036;-62
2023/11/26 06:48:56;;;;;;;4.80;2.40;;;;;;;0.68;100.00;97261.13;5038811;28;20053;-62
2023/11/26 06:51:22;;;;;;;6.97;2.67;;;;;;;0.67;100.00;97264.81;5034085;28;20025;-63
2023/11/26 06:53:50;;;;;;;5.65;2.60;;;;;;;0.64;100.00;97271.34;5045243;28;20450;-62
2023/11/26 06:56:17;;;;;;;5.78;2.90;;;;;;;0.67;100.00;97272.78;5039897;28;20429;-62
2023/11/26 06:58:46;;;;;;;5.07;2.95;;;;;;;0.68;100.00;97267.28;5044372;28;20060;-62
2023/11/26 07:01:13;;;;;;;10.40;2.55;;;;;;;0.72;100.00;97271.22;5039946;28;20052;-62
2023/11/26 07:03:41;;;;;;;8.60;3.20;;;;;;;0.81;100.00;97269.22;5043189;28;20043;-62
2023/11/26 07:06:10;;;;;;;6.82;2.70;;;;;;;0.82;100.00;97272.72;5041691;28;20041;-63
2023/11/26 07:08:38;;;;;;;8.88;3.10;;;;;;;0.85;100.00;97283.00;5043080;28;20050;-63
2023/11/26 07:11:06;;;;;;;8.77;2.85;;;;;;;0.84;100.00;97276.84;5040112;28;20056;-62
2023/11/26 07:13:33;;;;;;;5.82;2.50;;;;;;;0.93;100.00;97284.72;5039546;28;20053;-63
2023/11/26 07:16:00;;;;;;;7.97;3.05;;;;;;;0.88;100.00;97280.78;5045774;28;20048;-63
2023/11/26 07:18:27;;;;;;;7.47;2.55;;;;;;;0.80;100.00;97280.09;5040342;28;20066;-63
2023/11/26 07:20:53;;;;;;;6.95;4.00;;;;;;;0.87;100.00;97281.81;5036767;28;20565;-63
2023/11/26 07:23:21;;;;;;;7.07;2.80;;;;;;;0.91;100.00;97282.22;5039300;28;20041;-62
2023/11/26 07:25:48;;;;;;;6.18;3.00;;;;;;;0.95;100.00;97288.03;5040882;28;20044;-62
2023/11/26 07:28:14;;;;;;;7.13;2.97;;;;;;;0.93;100.00;97293.53;5049177;28;20139;-62
2023/11/26 07:30:45;;;;;;;8.18;3.50;;;;;;;1.00;100.00;97290.94;5052256;28;21179;-63
2023/11/26 07:33:11;;;;;;;7.50;3.80;;;;;;;1.03;100.00;97295.84;5046560;28;20193;-63
2023/11/26 07:35:38;;;;;;;6.30;3.35;;;;;;;1.23;100.00;97305.88;5043978;28;20052;-63
2023/11/26 07:38:06;;;;;;;6.03;3.20;;;;;;;1.17;100.00;97305.63;5037649;28;20037;-62
2023/11/26 07:40:33;;;;;;;6.30;3.70;;;;;;;1.19;100.00;97312.59;5040070;28;20124;-62
2023/11/26 07:43:00;;;;;;;8.43;3.72;;;;;;;1.23;100.00;97305.88;5047399;28;20037;-62
2023/11/26 07:45:27;;;;;;;12.38;3.50;;;;;;;1.24;100.00;97312.84;5043917;28;20126;-62
2023/11/26 07:47:53;;;;;;;9.80;3.25;;;;;;;1.29;100.00;97313.94;5037062;28;20048;-62
2023/11/26 07:50:20;;;;;;;6.50;2.92;;;;;;;1.27;100.00;97309.81;5039767;28;20160;-63
2023/11/26 07:52:47;;;;;;;6.63;3.60;;;;;;;1.32;100.00;97309.22;5039605;28;20116;-62
2023/11/26 07:55:14;;;;;;;6.03;3.53;;;;;;;1.38;100.00;97311.13;5048424;28;20823;-62
2023/11/26 07:57:42;;;;;;;6.30;3.70;;;;;;;1.45;100.00;97306.66;5044824;28;20052;-62
2023/11/26 08:00:09;;;;;;;6.28;3.60;;;;;;;1.59;100.00;97306.75;5045121;28;20069;-62
2023/11/26 08:02:40;;;;;;;6.47;3.53;;;;;;;1.61;100.00;97310.03;5060276;28;20036;-61
2023/11/26 08:05:08;;;;;;;6.05;3.30;;;;;;;1.57;100.00;97314.94;5046685;28;20083;-62
2023/11/26 08:07:36;;;;;;;6.00;3.38;;;;;;;1.54;100.00;97315.31;5041038;28;20500;-62
2023/11/26 08:10:10;;;;;;;7.65;3.70;;;;;;;1.51;100.00;97321.06;5046015;28;20045;-62
2023/11/26 08:12:39;;;;;;;6.55;3.65;;;;;;;1.53;100.00;97322.53;5036894;28;20523;-62
2023/11/26 08:15:12;;;;;;;12.35;4.50;;;;;;;1.65;100.00;97330.81;5041119;28;20037;-63
2023/11/26 08:17:39;;;;;;;9.38;3.80;;;;;;;1.68;100.00;97329.59;5044641;28;20661;-63
2023/11/26 08:20:11;;;;;;;9.02;4.25;;;;;;;1.75;100.00;97330.47;5038790;28;20048;-64
2023/11/26 08:22:40;;;;;;;10.07;4.20;;;;;;;1.78;100.00;97330.06;5039266;28;20041;-62
2023/11/26 08:25:11;;;;;;;9.20;3.90;;;;;;;1.73;100.00;97318.31;5046097;28;20553;-63
2023/11/26 08:27:44;;;;;;;6.63;3.92;;;;;;;1.77;100.00;97317.72;5053292;28;20496;-64
2023/11/26 08:30:13;;;;;;;10.27;4.13;;;;;;;1.80;100.00;97313.84;5044110;28;20049;-62
2023/11/26 08:32:49;;;;;;;9.45;4.68;;;;;;;1.85;100.00;97315.91;5042181;28;20045;-63
2023/11/26 08:35:16;;;;;;;7.00;4.00;;;;;;;1.81;100.00;97318.97;5050311;28;20119;-62
2023/11/26 08:37:43;;;;;;;10.82;4.65;;;;;;;1.97;100.00;97311.69;5057489;28;20036;-62
2023/11/26 08:40:13;;;;;;;5.60;3.67;;;;;;;1.89;100.00;97311.84;5050829;28;20670;-63
2023/11/26 08:42:41;;;;;;;9.07;3.78;;;;;;;1.91;100.00;97313.28;5047222;28;20047;-63
2023/11/26 08:45:10;;;;;;;14.55;4.97;;;;;;;1.92;100.00;97316.78;5036179;28;20099;-62
2023/11/26 08:47:40;;;;;;;8.75;4.47;;;;;;;1.93;100.00;97321.09;5034160;28;20045;-63
2023/11/26 08:50:08;;;;;;;8.27;4.88;;;;;;;1.89;100.00;97322.53;5043284;28;20112;-64
2023/11/26 08:52:35;;;;;;;11.23;5.88;;;;;;;2.01;100.00;97318.28;5034277;28;20044;-64
2023/11/26 08:55:03;;;;;;;8.88;4.13;;;;;;;2.01;100.00;97320.09;5044188;28;20672;-62
2023/11/26 08:57:31;;;;;;;10.43;4.63;;;;;;;2.05;100.00;97324.88;5047102;28;20056;-62
2023/11/26 08:59:58;;;;;;;8.50;4.20;;;;;;;2.14;100.00;97328.19;5044169;28;20041;-62
2023/11/26 09:02:25;;;;;;;6.70;3.88;;;;;;;2.11;100.00;97323.25;5045527;28;20037;-63
2023/11/26 09:04:51;;;;;;;10.20;5.25;;;;;;;2.05;100.00;97314.19;5038094;28;20037;-62
2023/11/26 09:07:19;;;;;;;9.38;5.50;;;;;;;2.06;100.00;97321.16;5037807;28;20037;-63
2023/11/26 09:09:45;;;;;;;7.28;4.38;;;;;;;2.20;100.00;97318.53;5044287;28;20053;-63
2023/11/26 09:12:12;;;;;;;9.60;4.20;;;;;;;2.37;100.00;97321.72;5040778;28;20040;-62
2023/11/26 09:14:38;;;;;;;7.13;4.22;;;;;;;2.52;100.00;97318.88;5041901;28;20037;-62
2023/11/26 09:17:05;;;;;;;8.68;5.03;;;;;;;2.58;100.00;97317.25;5040567;28;20107;-63
2023/11/26 09:19:32;;;;;;;8.15;4.13;;;;;;;2.64;100.00;97321.78;5047179;28;20419;-62
2023/11/26 09:22:02;;;;;;;7.47;4.28;;;;;;;2.67;100.00;97318.72;5030862;28;20091;-62
2023/11/26 09:24:29;;;;;;;8.50;3.80;;;;;;;2.78;100.00;97327.16;5038025;28;20095;-62
2023/11/26 09:26:55;;;;;;;6.35;3.15;;;;;;;2.79;100.00;97336.81;5042259;28;20475;-63
2023/11/26 09:29:22;;;;;;;8.00;3.03;;;;;;;2.76;100.00;97338.03;5037218;28;20044;-62
2023/11/26 09:31:58;;;;;;;11.45;3.67;;;;;;;2.72;100.00;97344.81;5028974;28;20664;-63
2023/11/26 09:34:25;;;;;;;6.93;3.00;;;;;;;2.69;100.00;97338.03;5036846;28;20049;-63
2023/11/26 09:36:52;;;;;;;8.07;3.33;;;;;;;2.64;100.00;97343.16;5045975;28;20128;-64
2023/11/26 09:39:19;;;;;;;7.32;3.38;;;;;;;2.41;100.00;97344.34;5040953;28;20041;-62
2023/11/26 09:41:45;;;;;;;8.23;3.70;;;;;;;2.39;100.00;97337.53;5039082;28;20106;-63
2023/11/26 09:44:13;;;;;;;5.63;3.05;;;;;;;2.38;100.00;97342.06;5045669;28;20053;-63
2023/11/26 09:46:39;;;;;;;10.10;3.45;;;;;;;2.50;100.00;97339.63;5043180;28;20037;-62
2023/11/26 09:49:08;;;;;;;8.50;3.53;;;;;;;2.46;100.00;97336.53;5039443;28;20060;-63
2023/11/26 09:51:37;;;;;;;6.90;3.65;;;;;;;2.44;100.00;97340.44;5038477;28;20559;-63
2023/11/26 09:54:07;;;;;;;8.07;3.00;;;;;;;2.60;100.00;97333.91;5049207;28;20037;-64
2023/11/26 09:56:33;;;;;;;8.07;4.05;;;;;;;2.56;100.00;97333.47;5032986;28;20049;-62
2023/11/26 09:59:03;;;;;;;7.47;3.45;;;;;;;2.60;100.00;97339.25;5040281;28;20059;-63
2023/11/26 10:01:30;;;;;;;7.68;3.97;;;;;;;2.81;100.00;97337.44;5047429;28;20037;-62
2023/11/26 10:03:58;;;;;;;6.95;4.00;;;;;;;2.89;100.00;97334.59;5040873;28;20801;-63
2023/11/26 10:06:26;;;;;;;8.35;3.83;;;;;;;3.01;100.00;97329.44;5044543;28;20060;-62
2023/11/26 10:08:52;;;;;;;9.43;3.55;;;;;;;2.98;100.00;97329.84;5047201;28;20535;-63
2023/11/26 10:11:23;;;;;;;6.18;2.92;;;;;;;3.17;100.00;97328.22;5029105;28;20053;-64
2023/11/26 10:13:53;;;;;;;6.27;2.80;;;;;;;3.34;100.00;97327.81;5034275;28;20041;-64
2023/11/26 10:16:34;;;;;;;8.25;2.90;;;;;;;3.32;100.00;97324.53;5032284;28;20296;-64
2023/11/26 10:19:05;;;;;;;9.23;2.90;;;;;;;3.09;100.00;97312.34;5036399;28;20112;-64
2023/11/26 10:21:32;;;;;;;6.85;2.55;;;;;;;3.27;100.00;97316.31;5041845;28;20045;-64
2023/11/26 10:24:01;;;;;;;6.22;2.88;;;;;;;3.40;100.00;97307.44;5047102;28;20097;-64
2023/11/26 10:26:29;;;;;;;5.93;2.30;;;;;;;3.30;100.00;97305.16;5032599;28;20036;-64
2023/11/26 10:29:08;;;;;;;7.70;2.28;;;;;;;3.34;100.00;97299.19;5029394;28;20639;-64
2023/11/26 10:31:36;;;;;;;8.15;2.70;;;;;;;3.52;100.00;97292.38;5036888;28;20152;-65
2023/11/26 10:34:13;;;;;;;5.10;2.60;;;;;;;3.60;100.00;97294.84;5037504;28;20048;-65
2023/11/26 10:36:41;;;;;;;7.53;3.08;;;;;;;3.68;100.00;97287.63;5044470;28;20045;-64
2023/11/26 10:39:11;;;;;;;11.18;3.17;;;;;;;3.75;100.00;97283.91;5048149;28;20624;-64
2023/11/26 10:41:38;;;;;;;6.72;2.80;;;;;;;3.70;100.00;97282.88;5047502;28;20045;-64
2023/11/26 10:44:05;;;;;;;9.73;2.53;;;;;;;3.64;100.00;97276.50;5050664;28;20071;-64
2023/11/26 10:46:34;;;;;;;6.13;2.42;;;;;;;3.54;100.00;97284.94;5047328;28;20049;-63
2023/11/26 10:49:27;;;;;;;5.93;2.60;;;;;;;3.68;100.00;97287.63;5038778;28;20120;-64
2023/11/26 10:52:03;;;;;;;6.00;2.28;;;;;;;3.70;100.00;97289.06;5046109;28;20051;-64
2023/11/26 10:54:36;;;;;;;4.40;1.80;;;;;;;3.61;100.00;97287.66;5041183;28;20045;-65
2023/11/26 10:57:11;;;;;;;6.63;2.55;;;;;;;3.51;100.00;97288.88;5046926;28;20041;-64
2023/11/26 10:59:45;;;;;;;6.20;2.47;;;;;;;3.55;100.00;97283.09;5046654;28;20053;-64
2023/11/26 11:02:16;;;;;;;9.20;4.03;;;;;;;3.51;100.00;97280.84;5034622;28;20045;-65
2023/11/26 11:04:48;;;;;;;8.68;4.70;;;;;;;3.50;100.00;97281.88;5037589;28;20128;-64
2023/11/26 11:07:15;;;;;;;5.82;3.42;;;;;;;3.45;100.00;97287.03;5045386;28;20438;-64
2023/11/26 11:10:22;;;;;;;4.68;2.10;;;;;;;3.46;100.00;97291.34;5036849;28;20707;-64
2023/11/26 11:12:54;;;;;;;5.93;2.80;;;;;;;3.44;100.00;97285.41;5034974;28;20039;-64
2023/11/26 11:15:23;;;;;;;4.78;2.13;;;;;;;3.53;100.00;97280.63;5037783;28;20617;-64
2023/11/26 11:17:50;;;;;;;7.43;1.70;;;;;;;3.48;100.00;97283.97;5036300;28;20045;-64
2023/11/26 11:20:17;;;;;;;5.28;2.30;;;;;;;3.58;100.00;97282.69;5050334;28;20504;-64
2023/11/26 11:22:43;;;;;;;3.50;1.60;;;;;;;3.46;100.00;97272.63;5044503;28;20037;-64
2023/11/26 11:25:11;;;;;;;8.68;2.50;;;;;;;3.47;100.00;97271.59;5048373;28;20052;-64
2023/11/26 11:27:51;;;;;;;3.88;1.80;;;;;;;3.66;100.00;97274.44;5046389;28;20052;-65
2023/11/26 11:30:39;;;;;;;7.00;2.08;;;;;;;3.63;100.00;97270.34;5041238;28;20095;-64
2023/11/26 11:33:07;;;;;;;7.75;2.20;;;;;;;3.57;100.00;97271.16;5039814;28;20068;-64
2023/11/26 11:35:40;;;;;;;5.25;1.63;;;;;;;3.55;100.00;97273.22;5040851;28;20754;-64
2023/11/26 11:38:09;;;;;;;3.05;1.40;;;;;;;3.68;100.00;97276.91;5045221;28;20098;-65
2023/11/26 11:41:08;;;;;;;9.60;2.13;;;;;;;3.70;100.00;97278.34;5048017;28;20181;-64